createdAt,value
2023-03-21T00:02:08.075Z,30.90
2023-03-21T00:07:11.145Z,31.20
2023-03-21T00:12:14.216Z,29.70
2023-03-21T00:17:15.942Z,31.10
2023-03-21T00:22:18.980Z,29.20
2023-03-21T00:27:53.372Z,29.13
2023-03-21T00:32:55.014Z,29.97
2023-03-21T00:37:58.989Z,28.90
2023-03-21T00:43:00.704Z,29.30
2023-03-21T00:48:02.598Z,27.77
2023-03-21T00:53:05.810Z,25.60
2023-03-21T00:58:07.536Z,40.47
2023-03-21T01:03:23.809Z,29.20
2023-03-21T01:08:35.184Z,27.27
2023-03-21T01:13:53.367Z,26.00
2023-03-21T01:18:59.556Z,26.57
2023-03-21T01:24:02.721Z,26.97
2023-03-21T01:29:04.641Z,26.13
2023-03-21T01:34:06.386Z,27.90
2023-03-21T01:39:09.591Z,27.90
2023-03-21T01:44:14.762Z,29.20
2023-03-21T01:49:18.258Z,27.00
2023-03-21T01:54:26.935Z,28.63
2023-03-21T01:59:31.733Z,29.60
2023-03-21T02:04:50.794Z,28.90
2023-03-21T02:09:57.512Z,28.47
2023-03-21T02:14:59.307Z,28.83
2023-03-21T02:20:34.712Z,28.87
2023-03-21T02:26:14.260Z,26.53
2023-03-21T02:31:26.402Z,28.90
2023-03-21T02:36:40.637Z,29.33
2023-03-21T02:41:47.529Z,27.37
2023-03-21T02:46:59.739Z,27.83
2023-03-21T02:52:15.567Z,28.90
2023-03-21T02:57:22.877Z,29.03
2023-03-21T03:02:27.777Z,27.60
2023-03-21T03:07:34.927Z,29.00
2023-03-21T03:12:43.059Z,28.80
2023-03-21T03:17:50.884Z,29.10
2023-03-21T03:22:56.228Z,30.53
2023-03-21T03:27:59.441Z,28.90
2023-03-21T03:33:02.286Z,27.70
2023-03-21T03:38:05.982Z,28.63
2023-03-21T03:43:10.727Z,27.97
2023-03-21T03:48:17.444Z,26.57
2023-03-21T03:53:21.195Z,28.30
2023-03-21T03:58:36.370Z,27.40
2023-03-21T04:03:54.454Z,26.27
2023-03-21T04:09:03.464Z,27.70
2023-03-21T04:14:09.166Z,28.03
2023-03-21T04:19:11.149Z,27.60
2023-03-21T04:24:13.822Z,27.40
2023-03-21T04:29:18.840Z,27.33
2023-03-21T04:34:40.300Z,27.17
2023-03-21T04:39:42.891Z,26.10
2023-03-21T04:44:46.129Z,27.67
2023-03-21T04:49:51.611Z,26.00
2023-03-21T04:54:53.589Z,26.37
2023-03-21T04:59:56.603Z,26.63
2023-03-21T05:04:58.915Z,28.43
2023-03-21T05:10:02.451Z,25.83
2023-03-21T05:15:08.107Z,27.30
2023-03-21T05:20:11.595Z,27.20
2023-03-21T05:25:13.622Z,26.00
2023-03-21T05:30:35.736Z,26.40
2023-03-21T05:35:38.546Z,27.40
2023-03-21T05:40:46.742Z,27.53
2023-03-21T05:45:50.297Z,26.30
2023-03-21T05:50:53.764Z,28.00
2023-03-21T05:55:57.101Z,27.03
2023-03-21T06:01:18.866Z,24.70
2023-03-21T06:06:28.840Z,24.53
2023-03-21T06:11:35.985Z,25.20
2023-03-21T06:17:02.573Z,25.40
2023-03-21T06:22:06.756Z,25.97
2023-03-21T06:27:11.442Z,24.63
2023-03-21T06:32:26.807Z,24.63
2023-03-21T06:37:33.244Z,22.47
2023-03-21T06:42:35.690Z,22.00
2023-03-21T06:47:45.307Z,20.80
2023-03-21T06:52:59.435Z,20.87
2023-03-21T06:58:03.350Z,21.37
2023-03-21T07:03:07.011Z,20.30
2023-03-21T07:08:11.375Z,19.07
2023-03-21T07:13:13.999Z,19.33
2023-03-21T07:18:20.892Z,19.80
2023-03-21T07:23:23.443Z,19.73
2023-03-21T07:28:25.356Z,18.73
2023-03-21T07:33:28.439Z,18.60
2023-03-21T07:38:33.908Z,17.37
2023-03-21T07:43:37.099Z,17.47
2023-03-21T07:48:45.396Z,17.57
2023-03-21T07:53:48.410Z,16.90
2023-03-21T07:58:50.109Z,16.37
2023-03-21T08:03:53.631Z,16.63
2023-03-21T08:08:55.369Z,16.73
2023-03-21T08:13:57.209Z,16.97
2023-03-21T08:19:00.280Z,16.60
2023-03-21T08:24:02.043Z,18.00
2023-03-21T08:29:03.793Z,16.50
2023-03-21T08:34:07.498Z,17.83
2023-03-21T08:39:09.860Z,17.30
2023-03-21T08:44:11.819Z,16.70
2023-03-21T08:49:15.202Z,17.10
2023-03-21T08:54:19.207Z,17.50
2023-03-21T08:59:21.012Z,17.97
2023-03-21T09:04:25.955Z,16.43
2023-03-21T09:09:27.907Z,16.20
2023-03-21T09:14:29.694Z,16.57
2023-03-21T09:19:32.974Z,15.00
2023-03-21T09:24:34.724Z,15.07
2023-03-21T09:29:36.678Z,16.10
2023-03-21T09:34:41.280Z,18.17
2023-03-21T09:39:45.255Z,18.60
2023-03-21T09:44:53.583Z,15.47
2023-03-21T09:50:07.597Z,15.80
2023-03-21T09:55:19.404Z,15.63
2023-03-21T10:00:25.653Z,14.53
2023-03-21T10:05:30.130Z,15.90
2023-03-21T10:10:33.099Z,15.30
2023-03-21T10:15:34.786Z,16.80
2023-03-21T10:20:38.054Z,16.60
2023-03-21T10:25:41.354Z,17.50
2023-03-21T10:30:44.606Z,17.47
2023-03-21T10:35:50.602Z,17.33
2023-03-21T10:40:52.408Z,16.90
2023-03-21T10:45:54.755Z,16.17
2023-03-21T10:50:57.923Z,19.80
2023-03-21T10:56:00.488Z,19.33
2023-03-21T11:01:03.246Z,18.33
2023-03-21T11:06:08.112Z,23.37
2023-03-21T11:11:12.370Z,21.60
2023-03-21T11:16:23.065Z,17.23
2023-03-21T11:21:29.750Z,18.10
2023-03-21T11:26:32.937Z,16.77
2023-03-21T11:31:38.533Z,20.33
2023-03-21T11:36:41.771Z,17.77
2023-03-21T11:41:43.887Z,16.73
2023-03-21T11:46:45.637Z,15.00
2023-03-21T11:51:51.298Z,15.03
2023-03-21T11:56:54.123Z,15.80
2023-03-21T12:02:02.189Z,16.30
2023-03-21T12:07:09.373Z,11.63
2023-03-21T12:12:20.120Z,12.00
2023-03-21T12:17:30.392Z,12.60
2023-03-21T12:22:35.815Z,12.27
2023-03-21T12:27:44.418Z,12.67
2023-03-21T12:32:54.293Z,12.30
2023-03-21T12:38:02.058Z,11.13
2023-03-21T12:43:24.457Z,10.17
2023-03-21T12:48:36.398Z,11.00
2023-03-21T12:53:45.262Z,11.50
2023-03-21T12:58:49.783Z,13.63
2023-03-21T13:03:56.522Z,12.10
2023-03-21T13:09:00.944Z,12.70
2023-03-21T13:14:04.534Z,13.10
2023-03-21T13:19:12.629Z,14.70
2023-03-21T13:24:27.182Z,13.67
2023-03-21T13:29:29.566Z,13.73
2023-03-21T13:34:31.239Z,13.93
2023-03-21T13:39:34.281Z,14.77
2023-03-21T13:44:40.393Z,15.40
2023-03-21T13:49:42.190Z,15.93
2023-03-21T13:54:49.520Z,16.40
2023-03-21T14:00:13.921Z,16.47
2023-03-21T14:05:18.116Z,17.40
2023-03-21T14:10:23.402Z,17.83
2023-03-21T14:15:26.324Z,18.00
2023-03-21T14:20:28.961Z,18.70
2023-03-21T14:25:41.042Z,18.20
2023-03-21T14:30:50.844Z,17.90
2023-03-21T14:35:52.716Z,18.53
2023-03-21T14:40:55.846Z,19.90
2023-03-21T14:45:57.706Z,19.30
2023-03-21T14:51:02.021Z,18.80
2023-03-21T14:56:07.564Z,18.97
2023-03-21T15:01:13.789Z,19.17
2023-03-21T15:06:15.950Z,18.90
2023-03-21T15:11:19.267Z,19.57
2023-03-21T15:16:21.185Z,20.60
2023-03-21T15:21:23.718Z,20.67
2023-03-21T15:26:26.966Z,19.77
2023-03-21T15:31:29.706Z,19.60
2023-03-21T15:36:32.929Z,21.17
2023-03-21T15:41:36.015Z,22.27
2023-03-21T15:46:44.782Z,21.40
2023-03-21T15:51:47.715Z,21.10
2023-03-21T15:56:52.481Z,20.63
2023-03-21T16:01:54.228Z,22.23
2023-03-21T16:07:00.493Z,22.40
2023-03-21T16:12:08.485Z,23.43
2023-03-21T16:17:17.545Z,20.97
2023-03-21T16:22:21.305Z,17.77
2023-03-21T16:27:24.529Z,17.53
2023-03-21T16:32:28.737Z,15.90
2023-03-21T16:37:30.470Z,14.53
2023-03-21T16:42:33.650Z,14.00
2023-03-21T16:47:35.339Z,16.13
2023-03-21T16:52:37.098Z,15.70
2023-03-21T16:57:40.342Z,17.87
2023-03-21T17:02:42.452Z,15.70
2023-03-21T17:07:45.127Z,17.00
2023-03-21T17:12:48.561Z,16.70
2023-03-21T17:17:50.330Z,17.60
2023-03-21T17:22:52.129Z,17.27
2023-03-21T17:27:56.199Z,19.30
2023-03-21T17:32:58.712Z,18.57
2023-03-21T17:38:00.433Z,35.80
2023-03-21T17:43:05.802Z,16.33
2023-03-21T17:48:07.778Z,17.57
2023-03-21T17:53:09.453Z,17.57
2023-03-21T17:58:12.919Z,15.03
2023-03-21T18:03:15.678Z,16.30
2023-03-21T18:08:18.267Z,14.60
2023-03-21T18:13:21.378Z,13.33
2023-03-21T18:18:23.114Z,14.73
2023-03-21T18:23:24.816Z,13.90
2023-03-21T18:28:27.854Z,13.80
2023-03-21T18:33:29.990Z,13.07
2023-03-21T18:38:31.733Z,13.63
2023-03-21T18:44:05.300Z,15.93
2023-03-21T18:48:57.253Z,13.50
2023-03-21T18:54:00.836Z,12.23
2023-03-21T18:59:04.570Z,13.50
2023-03-21T19:04:20.755Z,13.23
2023-03-21T19:09:31.236Z,12.17
2023-03-21T19:14:35.139Z,12.53
2023-03-21T19:19:37.129Z,11.83
2023-03-21T19:24:40.331Z,10.80
2023-03-21T19:29:43.531Z,11.70
2023-03-21T19:34:45.228Z,14.53
2023-03-21T19:39:47.435Z,12.30
2023-03-21T19:44:50.556Z,10.73
2023-03-21T19:55:15.880Z,12.60
2023-03-21T20:00:19.643Z,13.20
2023-03-21T20:05:22.008Z,13.63
2023-03-21T20:10:27.278Z,15.07
2023-03-21T20:15:31.133Z,14.57
2023-03-21T20:20:33.188Z,13.43
2023-03-21T20:25:35.877Z,15.50
2023-03-21T20:30:39.537Z,14.40
2023-03-21T20:41:04.681Z,15.60
2023-03-21T20:46:08.672Z,15.30
2023-03-21T20:52:14.872Z,14.57
2023-03-21T20:56:34.674Z,15.13
2023-03-21T21:01:38.471Z,14.40
2023-03-21T21:06:40.217Z,15.07
2023-03-21T21:12:06.549Z,14.43
2023-03-21T21:17:23.777Z,15.80
2023-03-21T21:22:28.109Z,14.90
2023-03-21T21:27:30.000Z,14.00
2023-03-21T21:32:33.077Z,14.50
2023-03-21T21:37:34.856Z,13.87
2023-03-21T21:42:36.629Z,13.00
2023-03-21T21:47:39.728Z,13.00
2023-03-21T21:52:43.550Z,14.93
2023-03-21T21:57:50.197Z,13.40
2023-03-21T22:02:53.370Z,11.93
2023-03-21T22:07:55.476Z,11.70
2023-03-21T22:12:57.222Z,11.73
2023-03-21T22:18:00.298Z,10.87
2023-03-21T22:23:02.017Z,10.03
2023-03-21T22:28:03.821Z,10.13
2023-03-21T22:33:09.949Z,9.90
2023-03-21T22:38:14.168Z,9.40
2023-03-21T22:43:15.913Z,8.97
2023-03-21T22:48:19.283Z,9.40
2023-03-21T22:53:20.955Z,9.00
2023-03-21T22:58:22.825Z,9.07
2023-03-21T23:03:25.945Z,8.83
2023-03-21T23:08:27.662Z,8.87
2023-03-21T23:13:30.015Z,8.90
2023-03-21T23:18:33.691Z,9.00
2023-03-21T23:23:38.380Z,9.30
2023-03-21T23:28:40.454Z,8.47
2023-03-21T23:33:43.600Z,9.53
2023-03-21T23:38:45.874Z,9.33
2023-03-21T23:43:47.857Z,9.90
2023-03-21T23:48:51.054Z,10.07
2023-03-21T23:53:53.343Z,9.60
2023-03-21T23:58:56.623Z,10.70
